KCOS

City of Colorado Springs Municipal Airport

Colorado Springs, Colorado, USA
KCOS 212330Z 2200/2224 24015G25KT P6SM SCT250 FM220400 30014KT P6SM BKN100 FM220600 35025G35KT P6SM VCSH SCT030 BKN050 FM220800 33030G45KT 5SM -SN BR BKN025 FM221800 34030G40KT P6SM SCT025 BKN050
Issued Valid From Valid To
Jan-21 @ 23:30 UTC
(41 minutes ago)
Jan-22 @ 00:00 UTC
(11 minutes ago)
Jan-23 @ 00:00 UTC
(in 24 hours)
Jan-22 @ 00:00 to Jan-22 @ 04:00
KCOS 212330Z 2200/2224 24015G25KT P6SM SCT250
Wind Visibility Clouds
240° at 15 knots
 Gusting to 25 knots
Greater than 6 miles
  • Scattered at 25,000' AGL
From Jan-22 @ 04:00 to Jan-22 @ 06:00
FM220400 30014KT P6SM BKN100
Wind Visibility Clouds
300° at 14 knots Greater than 6 miles
  • Broken at 10,000' AGL
From Jan-22 @ 06:00 to Jan-22 @ 08:00
FM220600 35025G35KT P6SM VCSH SCT030 BKN050
Wind Visibility Clouds
350° at 25 knots
 Gusting to 35 knots
Greater than 6 miles
  • Scattered at 3,000' AGL
  • Broken at 5,000' AGL
From Jan-22 @ 08:00 to Jan-22 @ 18:00
FM220800 33030G45KT 5SM -SN BR BKN025
Wind Visibility Clouds Conditions
330° at 30 knots
 Gusting to 45 knots
5 miles
  • Broken at 2,500' AGL
  • Light Snow
  • Mist
From Jan-22 @ 18:00 to Jan-23 @ 00:00
FM221800 34030G40KT P6SM SCT025 BKN050
Wind Visibility Clouds
340° at 30 knots
 Gusting to 40 knots
Greater than 6 miles
  • Scattered at 2,500' AGL
  • Broken at 5,000' AGL
KCOS 212330Z 2200/2224 24015G25KT P6SM SCT250 FM220400 30014KT P6SM BKN100 FM220600 35025G35KT P6SM VCSH SCT030 BKN050 FM220800 33030G45KT 5SM -SN BR BKN025 FM221800 34030G40KT P6SM SCT025 BKN050
Issued Jan-21 @ 23:30 UTC
(41 minutes ago)
Valid From Jan-22 @ 00:00 UTC
(11 minutes ago)
Valid To Jan-23 @ 00:00 UTC
(in 24 hours)
Jan-22 @ 00:00 - Jan-22 @ 04:00
Wind Visibility
240° at 15 knots
 Gusting to 25 knots
Greater than 6 miles
Clouds
  • Scattered at 25,000' AGL
From Jan-22 @ 04:00 - Jan-22 @ 06:00
Wind Visibility
300° at 14 knots Greater than 6 miles
Clouds
  • Broken at 10,000' AGL
From Jan-22 @ 06:00 - Jan-22 @ 08:00
Wind Visibility
350° at 25 knots
 Gusting to 35 knots
Greater than 6 miles
Clouds
  • Scattered at 3,000' AGL
  • Broken at 5,000' AGL
From Jan-22 @ 08:00 - Jan-22 @ 18:00
Wind Visibility
330° at 30 knots
 Gusting to 45 knots
5 miles
Clouds
  • Broken at 2,500' AGL
Conditions
  • Light Snow
  • Mist
From Jan-22 @ 18:00 - Jan-23 @ 00:00
Wind Visibility
340° at 30 knots
 Gusting to 40 knots
Greater than 6 miles
Clouds
  • Scattered at 2,500' AGL
  • Broken at 5,000' AGL